sensor_id;sensor_type;location;lat;lon;timestamp;P1;durP1;ratioP1;P2;durP2;ratioP2
781;SDS011;374;52.568;13.402;2023-04-07T00:00:20;25.47;;;18.80;;
781;SDS011;374;52.568;13.402;2023-04-07T00:02:45;16.87;;;15.00;;
781;SDS011;374;52.568;13.402;2023-04-07T00:05:13;16.73;;;15.10;;
781;SDS011;374;52.568;13.402;2023-04-07T00:07:38;17.70;;;15.80;;
781;SDS011;374;52.568;13.402;2023-04-07T00:10:04;21.53;;;14.60;;
781;SDS011;374;52.568;13.402;2023-04-07T00:12:31;14.70;;;12.90;;
781;SDS011;374;52.568;13.402;2023-04-07T00:14:56;13.67;;;11.60;;
781;SDS011;374;52.568;13.402;2023-04-07T00:17:22;14.03;;;12.57;;
781;SDS011;374;52.568;13.402;2023-04-07T00:19:47;16.47;;;12.30;;
781;SDS011;374;52.568;13.402;2023-04-07T00:22:13;13.90;;;12.40;;
781;SDS011;374;52.568;13.402;2023-04-07T00:24:38;16.10;;;11.93;;
781;SDS011;374;52.568;13.402;2023-04-07T00:27:04;14.20;;;12.80;;
781;SDS011;374;52.568;13.402;2023-04-07T00:29:29;15.63;;;13.03;;
781;SDS011;374;52.568;13.402;2023-04-07T00:31:55;18.37;;;13.87;;
781;SDS011;374;52.568;13.402;2023-04-07T00:34:22;12.23;;;11.00;;
781;SDS011;374;52.568;13.402;2023-04-07T00:36:48;14.13;;;12.33;;
781;SDS011;374;52.568;13.402;2023-04-07T00:39:17;15.63;;;11.90;;
781;SDS011;374;52.568;13.402;2023-04-07T00:41:43;14.30;;;11.60;;
781;SDS011;374;52.568;13.402;2023-04-07T00:44:09;16.03;;;14.30;;
781;SDS011;374;52.568;13.402;2023-04-07T00:46:35;14.43;;;13.00;;
781;SDS011;374;52.568;13.402;2023-04-07T00:49:00;12.30;;;11.07;;
781;SDS011;374;52.568;13.402;2023-04-07T00:51:26;13.27;;;11.83;;
781;SDS011;374;52.568;13.402;2023-04-07T00:53:51;15.07;;;12.70;;
781;SDS011;374;52.568;13.402;2023-04-07T00:56:18;14.97;;;13.33;;
781;SDS011;374;52.568;13.402;2023-04-07T00:58:44;14.40;;;11.90;;
781;SDS011;374;52.568;13.402;2023-04-07T01:01:11;16.97;;;14.30;;
781;SDS011;374;52.568;13.402;2023-04-07T01:03:44;19.80;;;14.50;;
781;SDS011;374;52.568;13.402;2023-04-07T01:06:16;17.87;;;13.30;;
781;SDS011;374;52.568;13.402;2023-04-07T01:08:53;16.80;;;12.90;;
781;SDS011;374;52.568;13.402;2023-04-07T01:11:25;15.33;;;13.33;;
781;SDS011;374;52.568;13.402;2023-04-07T01:13:56;16.20;;;14.50;;
781;SDS011;374;52.568;13.402;2023-04-07T01:16:31;13.83;;;12.53;;
781;SDS011;374;52.568;13.402;2023-04-07T01:19:03;16.60;;;13.80;;
781;SDS011;374;52.568;13.402;2023-04-07T01:21:41;16.10;;;14.50;;
781;SDS011;374;52.568;13.402;2023-04-07T01:27:24;19.43;;;15.83;;
781;SDS011;374;52.568;13.402;2023-04-07T01:30:04;18.20;;;15.07;;
781;SDS011;374;52.568;13.402;2023-04-07T01:32:34;16.23;;;14.50;;
781;SDS011;374;52.568;13.402;2023-04-07T01:35:01;19.53;;;16.50;;
781;SDS011;374;52.568;13.402;2023-04-07T01:37:30;16.73;;;14.93;;
781;SDS011;374;52.568;13.402;2023-04-07T01:39:57;16.90;;;13.90;;
781;SDS011;374;52.568;13.402;2023-04-07T01:42:22;15.90;;;14.13;;
781;SDS011;374;52.568;13.402;2023-04-07T01:44:50;15.80;;;14.20;;
781;SDS011;374;52.568;13.402;2023-04-07T01:47:16;18.27;;;14.10;;
781;SDS011;374;52.568;13.402;2023-04-07T01:49:43;15.50;;;13.93;;
781;SDS011;374;52.568;13.402;2023-04-07T01:52:10;17.40;;;14.20;;
781;SDS011;374;52.568;13.402;2023-04-07T01:54:37;15.37;;;13.33;;
781;SDS011;374;52.568;13.402;2023-04-07T01:57:03;14.77;;;13.33;;
781;SDS011;374;52.568;13.402;2023-04-07T01:59:29;15.73;;;14.13;;
781;SDS011;374;52.568;13.402;2023-04-07T02:01:54;16.20;;;13.63;;
781;SDS011;374;52.568;13.402;2023-04-07T02:04:21;16.83;;;14.47;;
781;SDS011;374;52.568;13.402;2023-04-07T02:06:55;15.97;;;13.47;;
781;SDS011;374;52.568;13.402;2023-04-07T02:09:25;17.50;;;13.87;;
781;SDS011;374;52.568;13.402;2023-04-07T02:11:54;16.30;;;14.67;;
781;SDS011;374;52.568;13.402;2023-04-07T02:14:22;17.07;;;14.93;;
781;SDS011;374;52.568;13.402;2023-04-07T02:16:48;15.70;;;13.97;;
781;SDS011;374;52.568;13.402;2023-04-07T02:19:14;20.10;;;15.33;;
781;SDS011;374;52.568;13.402;2023-04-07T02:21:40;17.23;;;15.00;;
781;SDS011;374;52.568;13.402;2023-04-07T02:24:07;16.80;;;14.57;;
781;SDS011;374;52.568;13.402;2023-04-07T02:26:35;18.60;;;15.57;;
781;SDS011;374;52.568;13.402;2023-04-07T02:29:02;16.50;;;14.60;;
781;SDS011;374;52.568;13.402;2023-04-07T02:31:28;19.80;;;15.93;;
781;SDS011;374;52.568;13.402;2023-04-07T02:33:53;20.00;;;16.50;;
781;SDS011;374;52.568;13.402;2023-04-07T02:36:19;17.27;;;15.47;;
781;SDS011;374;52.568;13.402;2023-04-07T02:38:44;16.60;;;14.90;;
781;SDS011;374;52.568;13.402;2023-04-07T02:41:10;19.47;;;17.47;;
781;SDS011;374;52.568;13.402;2023-04-07T02:43:35;18.77;;;15.20;;
781;SDS011;374;52.568;13.402;2023-04-07T02:46:01;19.97;;;15.40;;
781;SDS011;374;52.568;13.402;2023-04-07T02:48:26;17.33;;;15.43;;
781;SDS011;374;52.568;13.402;2023-04-07T02:50:52;18.77;;;16.33;;
781;SDS011;374;52.568;13.402;2023-04-07T02:53:17;16.87;;;14.33;;
781;SDS011;374;52.568;13.402;2023-04-07T02:55:43;18.30;;;16.40;;
781;SDS011;374;52.568;13.402;2023-04-07T02:58:08;17.07;;;14.43;;
781;SDS011;374;52.568;13.402;2023-04-07T03:00:33;21.30;;;14.87;;
781;SDS011;374;52.568;13.402;2023-04-07T03:02:59;16.33;;;14.17;;
781;SDS011;374;52.568;13.402;2023-04-07T03:05:25;17.77;;;14.90;;
781;SDS011;374;52.568;13.402;2023-04-07T03:07:51;18.83;;;14.07;;
781;SDS011;374;52.568;13.402;2023-04-07T03:10:16;17.73;;;15.67;;
781;SDS011;374;52.568;13.402;2023-04-07T03:12:42;18.13;;;16.00;;
781;SDS011;374;52.568;13.402;2023-04-07T03:15:08;19.93;;;15.60;;
781;SDS011;374;52.568;13.402;2023-04-07T03:17:33;15.80;;;14.00;;
781;SDS011;374;52.568;13.402;2023-04-07T03:19:59;16.77;;;13.77;;
781;SDS011;374;52.568;13.402;2023-04-07T03:22:25;15.90;;;13.23;;
781;SDS011;374;52.568;13.402;2023-04-07T03:24:50;16.97;;;13.70;;
781;SDS011;374;52.568;13.402;2023-04-07T03:27:16;17.23;;;12.57;;
781;SDS011;374;52.568;13.402;2023-04-07T03:29:42;17.30;;;14.20;;
781;SDS011;374;52.568;13.402;2023-04-07T03:32:07;15.00;;;12.80;;
781;SDS011;374;52.568;13.402;2023-04-07T03:34:33;14.60;;;12.93;;
781;SDS011;374;52.568;13.402;2023-04-07T03:36:58;16.33;;;13.40;;
781;SDS011;374;52.568;13.402;2023-04-07T03:39:24;14.87;;;13.30;;
781;SDS011;374;52.568;13.402;2023-04-07T03:41:49;14.20;;;12.60;;
781;SDS011;374;52.568;13.402;2023-04-07T03:44:15;19.13;;;12.90;;
781;SDS011;374;52.568;13.402;2023-04-07T03:46:41;14.77;;;12.83;;
781;SDS011;374;52.568;13.402;2023-04-07T03:49:06;13.87;;;11.47;;
781;SDS011;374;52.568;13.402;2023-04-07T03:51:32;15.30;;;13.07;;
781;SDS011;374;52.568;13.402;2023-04-07T03:53:58;14.00;;;12.03;;
781;SDS011;374;52.568;13.402;2023-04-07T03:56:23;13.50;;;11.03;;
781;SDS011;374;52.568;13.402;2023-04-07T03:58:49;12.10;;;10.80;;
781;SDS011;374;52.568;13.402;2023-04-07T04:01:14;12.73;;;11.20;;
781;SDS011;374;52.568;13.402;2023-04-07T04:03:40;16.13;;;12.20;;
781;SDS011;374;52.568;13.402;2023-04-07T04:06:06;13.90;;;11.27;;
781;SDS011;374;52.568;13.402;2023-04-07T04:08:32;13.37;;;11.73;;
781;SDS011;374;52.568;13.402;2023-04-07T04:10:57;14.10;;;11.60;;
781;SDS011;374;52.568;13.402;2023-04-07T04:13:23;12.93;;;11.53;;
781;SDS011;374;52.568;13.402;2023-04-07T04:15:48;13.37;;;11.80;;
781;SDS011;374;52.568;13.402;2023-04-07T04:18:14;16.43;;;12.87;;
781;SDS011;374;52.568;13.402;2023-04-07T04:20:40;13.43;;;10.20;;
781;SDS011;374;52.568;13.402;2023-04-07T04:23:05;12.93;;;11.30;;
781;SDS011;374;52.568;13.402;2023-04-07T04:25:30;12.53;;;10.93;;
781;SDS011;374;52.568;13.402;2023-04-07T04:27:56;14.43;;;11.80;;
781;SDS011;374;52.568;13.402;2023-04-07T04:30:21;13.63;;;10.70;;
781;SDS011;374;52.568;13.402;2023-04-07T04:32:47;12.10;;;9.73;;
781;SDS011;374;52.568;13.402;2023-04-07T04:35:13;15.73;;;11.20;;
781;SDS011;374;52.568;13.402;2023-04-07T04:37:39;12.93;;;11.30;;
781;SDS011;374;52.568;13.402;2023-04-07T04:40:05;15.03;;;10.50;;
781;SDS011;374;52.568;13.402;2023-04-07T04:42:32;12.47;;;10.80;;
781;SDS011;374;52.568;13.402;2023-04-07T04:44:58;14.80;;;11.10;;
781;SDS011;374;52.568;13.402;2023-04-07T04:47:23;14.90;;;11.73;;
781;SDS011;374;52.568;13.402;2023-04-07T04:49:49;13.00;;;9.90;;
781;SDS011;374;52.568;13.402;2023-04-07T04:52:15;14.47;;;11.47;;
781;SDS011;374;52.568;13.402;2023-04-07T04:54:40;12.77;;;10.47;;
781;SDS011;374;52.568;13.402;2023-04-07T04:57:05;12.43;;;10.90;;
781;SDS011;374;52.568;13.402;2023-04-07T04:59:31;13.10;;;10.07;;
781;SDS011;374;52.568;13.402;2023-04-07T05:01:57;12.10;;;10.00;;
781;SDS011;374;52.568;13.402;2023-04-07T05:04:23;15.20;;;11.20;;
781;SDS011;374;52.568;13.402;2023-04-07T05:06:48;11.30;;;9.93;;
781;SDS011;374;52.568;13.402;2023-04-07T05:09:13;13.07;;;10.33;;
781;SDS011;374;52.568;13.402;2023-04-07T05:11:39;12.70;;;10.03;;
781;SDS011;374;52.568;13.402;2023-04-07T05:14:06;12.30;;;10.63;;
781;SDS011;374;52.568;13.402;2023-04-07T05:16:31;13.30;;;10.20;;
781;SDS011;374;52.568;13.402;2023-04-07T05:18:57;12.60;;;10.80;;
781;SDS011;374;52.568;13.402;2023-04-07T05:21:22;12.27;;;11.03;;
781;SDS011;374;52.568;13.402;2023-04-07T05:23:47;13.60;;;10.00;;
781;SDS011;374;52.568;13.402;2023-04-07T05:26:13;13.67;;;11.00;;
781;SDS011;374;52.568;13.402;2023-04-07T05:28:38;12.43;;;9.73;;
781;SDS011;374;52.568;13.402;2023-04-07T05:31:04;12.03;;;9.77;;
781;SDS011;374;52.568;13.402;2023-04-07T05:33:29;11.93;;;10.07;;
781;SDS011;374;52.568;13.402;2023-04-07T05:35:55;11.93;;;10.20;;
781;SDS011;374;52.568;13.402;2023-04-07T05:38:20;11.33;;;10.13;;
781;SDS011;374;52.568;13.402;2023-04-07T05:40:46;13.03;;;10.40;;
781;SDS011;374;52.568;13.402;2023-04-07T05:43:12;12.03;;;10.53;;
781;SDS011;374;52.568;13.402;2023-04-07T05:45:37;14.00;;;10.90;;
781;SDS011;374;52.568;13.402;2023-04-07T05:48:03;11.93;;;10.80;;
781;SDS011;374;52.568;13.402;2023-04-07T05:50:28;14.00;;;12.03;;
781;SDS011;374;52.568;13.402;2023-04-07T05:52:54;11.13;;;9.93;;
781;SDS011;374;52.568;13.402;2023-04-07T05:55:19;13.87;;;11.00;;
781;SDS011;374;52.568;13.402;2023-04-07T05:57:45;10.70;;;9.57;;
781;SDS011;374;52.568;13.402;2023-04-07T06:00:11;14.37;;;11.27;;
781;SDS011;374;52.568;13.402;2023-04-07T06:02:37;13.10;;;10.30;;
781;SDS011;374;52.568;13.402;2023-04-07T06:05:04;12.37;;;11.00;;
781;SDS011;374;52.568;13.402;2023-04-07T06:07:30;12.47;;;11.17;;
781;SDS011;374;52.568;13.402;2023-04-07T06:09:55;12.50;;;11.17;;
781;SDS011;374;52.568;13.402;2023-04-07T06:12:22;16.17;;;11.90;;
781;SDS011;374;52.568;13.402;2023-04-07T06:14:51;15.97;;;11.50;;
781;SDS011;374;52.568;13.402;2023-04-07T06:17:18;17.30;;;12.10;;
781;SDS011;374;52.568;13.402;2023-04-07T06:19:43;14.93;;;12.27;;
781;SDS011;374;52.568;13.402;2023-04-07T06:22:09;17.50;;;11.90;;
781;SDS011;374;52.568;13.402;2023-04-07T06:24:35;19.97;;;12.53;;
781;SDS011;374;52.568;13.402;2023-04-07T06:27:00;13.83;;;12.20;;
781;SDS011;374;52.568;13.402;2023-04-07T06:29:27;14.03;;;12.30;;
781;SDS011;374;52.568;13.402;2023-04-07T06:31:53;13.67;;;11.47;;
781;SDS011;374;52.568;13.402;2023-04-07T06:34:19;14.60;;;12.20;;
781;SDS011;374;52.568;13.402;2023-04-07T06:36:45;15.27;;;12.00;;
781;SDS011;374;52.568;13.402;2023-04-07T06:39:10;13.37;;;11.70;;
781;SDS011;374;52.568;13.402;2023-04-07T06:41:36;13.83;;;12.17;;
781;SDS011;374;52.568;13.402;2023-04-07T06:44:03;13.20;;;11.80;;
781;SDS011;374;52.568;13.402;2023-04-07T06:46:29;12.73;;;10.97;;
781;SDS011;374;52.568;13.402;2023-04-07T06:48:54;13.03;;;11.77;;
781;SDS011;374;52.568;13.402;2023-04-07T06:51:20;13.93;;;11.10;;
781;SDS011;374;52.568;13.402;2023-04-07T06:53:45;11.93;;;10.70;;
781;SDS011;374;52.568;13.402;2023-04-07T06:56:12;14.80;;;11.80;;
781;SDS011;374;52.568;13.402;2023-04-07T06:58:41;14.90;;;11.30;;
781;SDS011;374;52.568;13.402;2023-04-07T07:01:06;16.93;;;12.30;;
781;SDS011;374;52.568;13.402;2023-04-07T07:03:32;12.30;;;10.63;;
781;SDS011;374;52.568;13.402;2023-04-07T07:05:58;11.53;;;10.33;;
781;SDS011;374;52.568;13.402;2023-04-07T07:08:24;13.47;;;12.10;;
781;SDS011;374;52.568;13.402;2023-04-07T07:10:51;15.77;;;11.27;;
781;SDS011;374;52.568;13.402;2023-04-07T07:13:17;11.30;;;10.10;;
781;SDS011;374;52.568;13.402;2023-04-07T07:15:44;12.00;;;10.83;;
781;SDS011;374;52.568;13.402;2023-04-07T07:18:10;11.80;;;10.30;;
781;SDS011;374;52.568;13.402;2023-04-07T07:20:36;11.43;;;9.93;;
781;SDS011;374;52.568;13.402;2023-04-07T07:23:01;12.60;;;9.60;;
781;SDS011;374;52.568;13.402;2023-04-07T07:25:27;13.37;;;10.00;;
781;SDS011;374;52.568;13.402;2023-04-07T07:27:52;13.60;;;9.67;;
781;SDS011;374;52.568;13.402;2023-04-07T07:30:22;10.40;;;8.50;;
781;SDS011;374;52.568;13.402;2023-04-07T07:32:48;11.47;;;8.77;;
781;SDS011;374;52.568;13.402;2023-04-07T07:35:14;10.67;;;8.47;;
781;SDS011;374;52.568;13.402;2023-04-07T07:37:40;10.33;;;7.83;;
781;SDS011;374;52.568;13.402;2023-04-07T07:40:06;11.87;;;8.10;;
781;SDS011;374;52.568;13.402;2023-04-07T07:42:31;9.50;;;8.13;;
781;SDS011;374;52.568;13.402;2023-04-07T07:44:57;11.50;;;8.13;;
781;SDS011;374;52.568;13.402;2023-04-07T07:47:23;9.23;;;7.50;;
781;SDS011;374;52.568;13.402;2023-04-07T07:49:50;8.20;;;7.40;;
781;SDS011;374;52.568;13.402;2023-04-07T07:52:15;8.90;;;6.97;;
781;SDS011;374;52.568;13.402;2023-04-07T07:54:41;10.13;;;7.57;;
781;SDS011;374;52.568;13.402;2023-04-07T07:57:06;11.90;;;9.00;;
781;SDS011;374;52.568;13.402;2023-04-07T07:59:32;9.53;;;7.60;;
781;SDS011;374;52.568;13.402;2023-04-07T08:01:58;8.70;;;6.70;;
781;SDS011;374;52.568;13.402;2023-04-07T08:04:23;7.67;;;6.87;;
781;SDS011;374;52.568;13.402;2023-04-07T08:06:49;8.30;;;6.60;;
781;SDS011;374;52.568;13.402;2023-04-07T08:09:15;9.20;;;6.97;;
781;SDS011;374;52.568;13.402;2023-04-07T08:11:41;7.73;;;6.70;;
781;SDS011;374;52.568;13.402;2023-04-07T08:14:07;7.67;;;6.93;;
781;SDS011;374;52.568;13.402;2023-04-07T08:16:32;6.53;;;5.90;;
781;SDS011;374;52.568;13.402;2023-04-07T08:18:58;7.53;;;6.40;;
781;SDS011;374;52.568;13.402;2023-04-07T08:21:23;8.90;;;6.00;;
781;SDS011;374;52.568;13.402;2023-04-07T08:23:52;7.13;;;6.53;;
781;SDS011;374;52.568;13.402;2023-04-07T08:26:18;11.07;;;5.90;;
781;SDS011;374;52.568;13.402;2023-04-07T08:28:43;6.03;;;5.30;;
781;SDS011;374;52.568;13.402;2023-04-07T08:31:09;5.53;;;5.00;;
781;SDS011;374;52.568;13.402;2023-04-07T08:33:34;7.40;;;6.50;;
781;SDS011;374;52.568;13.402;2023-04-07T08:36:00;7.80;;;5.80;;
781;SDS011;374;52.568;13.402;2023-04-07T08:38:25;6.33;;;5.70;;
781;SDS011;374;52.568;13.402;2023-04-07T08:40:53;6.07;;;4.73;;
781;SDS011;374;52.568;13.402;2023-04-07T08:43:35;5.57;;;5.07;;
781;SDS011;374;52.568;13.402;2023-04-07T08:46:02;6.80;;;5.77;;
781;SDS011;374;52.568;13.402;2023-04-07T08:48:31;7.20;;;5.57;;
781;SDS011;374;52.568;13.402;2023-04-07T08:51:09;6.90;;;5.10;;
781;SDS011;374;52.568;13.402;2023-04-07T08:53:47;9.47;;;5.30;;
781;SDS011;374;52.568;13.402;2023-04-07T08:56:15;6.37;;;5.33;;
781;SDS011;374;52.568;13.402;2023-04-07T08:58:42;6.03;;;4.93;;
781;SDS011;374;52.568;13.402;2023-04-07T09:01:09;4.73;;;4.33;;
781;SDS011;374;52.568;13.402;2023-04-07T09:03:35;6.40;;;5.40;;
781;SDS011;374;52.568;13.402;2023-04-07T09:06:02;4.83;;;4.30;;
781;SDS011;374;52.568;13.402;2023-04-07T09:08:28;7.57;;;5.60;;
781;SDS011;374;52.568;13.402;2023-04-07T09:10:53;4.70;;;4.30;;
781;SDS011;374;52.568;13.402;2023-04-07T09:13:21;5.40;;;4.87;;
781;SDS011;374;52.568;13.402;2023-04-07T09:15:48;6.20;;;5.60;;
781;SDS011;374;52.568;13.402;2023-04-07T09:18:13;10.53;;;4.70;;
781;SDS011;374;52.568;13.402;2023-04-07T09:20:56;5.30;;;4.67;;
781;SDS011;374;52.568;13.402;2023-04-07T09:23:30;6.03;;;4.10;;
781;SDS011;374;52.568;13.402;2023-04-07T09:26:01;5.80;;;4.70;;
781;SDS011;374;52.568;13.402;2023-04-07T09:28:43;6.10;;;4.90;;
781;SDS011;374;52.568;13.402;2023-04-07T09:31:09;6.20;;;4.40;;
781;SDS011;374;52.568;13.402;2023-04-07T09:33:35;6.20;;;3.90;;
781;SDS011;374;52.568;13.402;2023-04-07T09:36:04;7.10;;;4.93;;
781;SDS011;374;52.568;13.402;2023-04-07T09:41:09;6.10;;;4.73;;
781;SDS011;374;52.568;13.402;2023-04-07T09:43:41;4.70;;;4.10;;
781;SDS011;374;52.568;13.402;2023-04-07T09:48:35;4.60;;;4.03;;
781;SDS011;374;52.568;13.402;2023-04-07T09:51:04;6.00;;;4.13;;
781;SDS011;374;52.568;13.402;2023-04-07T09:53:45;6.00;;;4.93;;
781;SDS011;374;52.568;13.402;2023-04-07T09:56:13;4.70;;;4.30;;
781;SDS011;374;52.568;13.402;2023-04-07T09:58:40;4.90;;;4.50;;
781;SDS011;374;52.568;13.402;2023-04-07T10:01:09;4.40;;;4.07;;
781;SDS011;374;52.568;13.402;2023-04-07T10:03:36;7.97;;;4.97;;
781;SDS011;374;52.568;13.402;2023-04-07T10:06:03;6.73;;;5.53;;
781;SDS011;374;52.568;13.402;2023-04-07T10:08:31;6.57;;;5.40;;
781;SDS011;374;52.568;13.402;2023-04-07T10:10:58;5.30;;;4.80;;
781;SDS011;374;52.568;13.402;2023-04-07T10:13:27;7.20;;;4.80;;
781;SDS011;374;52.568;13.402;2023-04-07T10:16:03;7.20;;;4.50;;
781;SDS011;374;52.568;13.402;2023-04-07T10:18:35;6.17;;;4.30;;
781;SDS011;374;52.568;13.402;2023-04-07T10:21:05;5.90;;;4.30;;
781;SDS011;374;52.568;13.402;2023-04-07T10:23:53;5.23;;;3.93;;
781;SDS011;374;52.568;13.402;2023-04-07T10:26:25;5.07;;;4.67;;
781;SDS011;374;52.568;13.402;2023-04-07T10:28:55;4.47;;;4.07;;
781;SDS011;374;52.568;13.402;2023-04-07T10:31:26;5.70;;;4.60;;
781;SDS011;374;52.568;13.402;2023-04-07T10:33:52;4.70;;;4.30;;
781;SDS011;374;52.568;13.402;2023-04-07T10:36:19;5.37;;;4.27;;
781;SDS011;374;52.568;13.402;2023-04-07T10:44:00;8.87;;;6.07;;
781;SDS011;374;52.568;13.402;2023-04-07T10:49:12;5.07;;;4.57;;
781;SDS011;374;52.568;13.402;2023-04-07T10:51:40;5.47;;;4.97;;
781;SDS011;374;52.568;13.402;2023-04-07T10:54:15;5.67;;;5.03;;
781;SDS011;374;52.568;13.402;2023-04-07T10:59:30;5.70;;;5.20;;
781;SDS011;374;52.568;13.402;2023-04-07T11:04:43;6.80;;;5.37;;
781;SDS011;374;52.568;13.402;2023-04-07T11:07:10;7.63;;;5.70;;
781;SDS011;374;52.568;13.402;2023-04-07T11:09:37;6.30;;;5.70;;
781;SDS011;374;52.568;13.402;2023-04-07T11:12:04;7.73;;;5.70;;
781;SDS011;374;52.568;13.402;2023-04-07T11:14:30;9.83;;;6.47;;
781;SDS011;374;52.568;13.402;2023-04-07T11:16:56;7.83;;;6.10;;
781;SDS011;374;52.568;13.402;2023-04-07T11:19:23;6.93;;;5.23;;
781;SDS011;374;52.568;13.402;2023-04-07T11:21:49;7.03;;;6.23;;
781;SDS011;374;52.568;13.402;2023-04-07T11:24:33;6.77;;;6.13;;
781;SDS011;374;52.568;13.402;2023-04-07T11:27:01;6.97;;;6.27;;
781;SDS011;374;52.568;13.402;2023-04-07T11:29:31;7.07;;;6.03;;
781;SDS011;374;52.568;13.402;2023-04-07T11:31:58;7.17;;;6.10;;
781;SDS011;374;52.568;13.402;2023-04-07T11:34:33;7.73;;;7.03;;
781;SDS011;374;52.568;13.402;2023-04-07T11:39:55;8.30;;;6.77;;
781;SDS011;374;52.568;13.402;2023-04-07T11:42:42;9.13;;;7.23;;
781;SDS011;374;52.568;13.402;2023-04-07T11:45:16;7.23;;;6.53;;
781;SDS011;374;52.568;13.402;2023-04-07T11:47:43;12.27;;;6.73;;
781;SDS011;374;52.568;13.402;2023-04-07T11:50:09;7.20;;;6.50;;
781;SDS011;374;52.568;13.402;2023-04-07T11:52:41;9.13;;;6.70;;
781;SDS011;374;52.568;13.402;2023-04-07T11:55:15;6.43;;;5.70;;
781;SDS011;374;52.568;13.402;2023-04-07T11:57:48;6.73;;;5.97;;
781;SDS011;374;52.568;13.402;2023-04-07T12:00:18;6.73;;;6.10;;
781;SDS011;374;52.568;13.402;2023-04-07T12:02:44;7.30;;;6.20;;
781;SDS011;374;52.568;13.402;2023-04-07T12:05:10;7.53;;;6.40;;
781;SDS011;374;52.568;13.402;2023-04-07T12:07:51;9.20;;;7.20;;
781;SDS011;374;52.568;13.402;2023-04-07T12:10:18;8.90;;;6.53;;
781;SDS011;374;52.568;13.402;2023-04-07T12:12:45;7.20;;;6.10;;
781;SDS011;374;52.568;13.402;2023-04-07T12:15:11;6.43;;;5.80;;
781;SDS011;374;52.568;13.402;2023-04-07T12:17:37;6.20;;;5.30;;
781;SDS011;374;52.568;13.402;2023-04-07T12:20:08;6.17;;;5.10;;
781;SDS011;374;52.568;13.402;2023-04-07T12:22:33;5.50;;;4.60;;
781;SDS011;374;52.568;13.402;2023-04-07T12:24:59;6.40;;;4.50;;
781;SDS011;374;52.568;13.402;2023-04-07T12:27:25;6.37;;;5.47;;
781;SDS011;374;52.568;13.402;2023-04-07T12:29:51;7.37;;;5.50;;
781;SDS011;374;52.568;13.402;2023-04-07T12:32:16;4.87;;;4.37;;
781;SDS011;374;52.568;13.402;2023-04-07T12:34:43;7.30;;;6.00;;
781;SDS011;374;52.568;13.402;2023-04-07T12:37:08;5.43;;;4.53;;
781;SDS011;374;52.568;13.402;2023-04-07T12:39:34;4.77;;;4.27;;
781;SDS011;374;52.568;13.402;2023-04-07T12:41:59;5.40;;;3.83;;
781;SDS011;374;52.568;13.402;2023-04-07T12:44:25;5.40;;;4.90;;
781;SDS011;374;52.568;13.402;2023-04-07T12:46:50;4.33;;;3.90;;
781;SDS011;374;52.568;13.402;2023-04-07T12:49:16;5.93;;;4.30;;
781;SDS011;374;52.568;13.402;2023-04-07T12:51:41;3.57;;;3.23;;
781;SDS011;374;52.568;13.402;2023-04-07T12:54:07;3.73;;;3.30;;
781;SDS011;374;52.568;13.402;2023-04-07T12:56:32;4.57;;;3.80;;
781;SDS011;374;52.568;13.402;2023-04-07T12:58:58;3.73;;;3.40;;
781;SDS011;374;52.568;13.402;2023-04-07T13:01:23;5.30;;;3.60;;
781;SDS011;374;52.568;13.402;2023-04-07T13:03:49;4.53;;;3.50;;
781;SDS011;374;52.568;13.402;2023-04-07T13:06:15;5.23;;;4.07;;
781;SDS011;374;52.568;13.402;2023-04-07T13:08:41;4.33;;;3.93;;
781;SDS011;374;52.568;13.402;2023-04-07T13:11:06;4.90;;;4.07;;
781;SDS011;374;52.568;13.402;2023-04-07T13:13:32;4.80;;;4.40;;
781;SDS011;374;52.568;13.402;2023-04-07T13:15:58;5.43;;;4.53;;
781;SDS011;374;52.568;13.402;2023-04-07T13:18:23;5.40;;;4.30;;
781;SDS011;374;52.568;13.402;2023-04-07T13:20:49;6.83;;;4.40;;
781;SDS011;374;52.568;13.402;2023-04-07T13:23:15;5.40;;;4.27;;
781;SDS011;374;52.568;13.402;2023-04-07T13:25:40;7.97;;;6.23;;
781;SDS011;374;52.568;13.402;2023-04-07T13:28:06;5.63;;;4.60;;
781;SDS011;374;52.568;13.402;2023-04-07T13:30:31;5.60;;;4.80;;
781;SDS011;374;52.568;13.402;2023-04-07T13:32:57;4.40;;;4.00;;
781;SDS011;374;52.568;13.402;2023-04-07T13:35:23;9.23;;;4.80;;
781;SDS011;374;52.568;13.402;2023-04-07T13:37:49;6.57;;;4.57;;
781;SDS011;374;52.568;13.402;2023-04-07T13:40:14;4.77;;;4.40;;
781;SDS011;374;52.568;13.402;2023-04-07T13:42:40;5.60;;;4.90;;
781;SDS011;374;52.568;13.402;2023-04-07T13:45:05;5.43;;;4.43;;
781;SDS011;374;52.568;13.402;2023-04-07T13:47:32;5.00;;;3.93;;
781;SDS011;374;52.568;13.402;2023-04-07T13:50:01;4.87;;;4.37;;
781;SDS011;374;52.568;13.402;2023-04-07T13:52:27;6.03;;;4.87;;
781;SDS011;374;52.568;13.402;2023-04-07T13:54:53;4.90;;;4.40;;
781;SDS011;374;52.568;13.402;2023-04-07T13:57:18;4.60;;;4.20;;
781;SDS011;374;52.568;13.402;2023-04-07T13:59:47;4.73;;;4.17;;
781;SDS011;374;52.568;13.402;2023-04-07T14:02:13;4.80;;;4.40;;
781;SDS011;374;52.568;13.402;2023-04-07T14:04:39;6.30;;;4.20;;
781;SDS011;374;52.568;13.402;2023-04-07T14:07:04;5.53;;;4.60;;
781;SDS011;374;52.568;13.402;2023-04-07T14:09:33;5.03;;;4.57;;
781;SDS011;374;52.568;13.402;2023-04-07T14:11:59;4.97;;;4.50;;
781;SDS011;374;52.568;13.402;2023-04-07T14:14:24;5.30;;;4.20;;
781;SDS011;374;52.568;13.402;2023-04-07T14:16:50;4.60;;;4.20;;
781;SDS011;374;52.568;13.402;2023-04-07T14:19:17;4.43;;;4.00;;
781;SDS011;374;52.568;13.402;2023-04-07T14:21:44;5.00;;;4.17;;
781;SDS011;374;52.568;13.402;2023-04-07T14:24:10;4.93;;;4.30;;
781;SDS011;374;52.568;13.402;2023-04-07T14:26:35;7.03;;;5.30;;
781;SDS011;374;52.568;13.402;2023-04-07T14:29:04;4.43;;;4.03;;
781;SDS011;374;52.568;13.402;2023-04-07T14:31:29;4.17;;;3.60;;
781;SDS011;374;52.568;13.402;2023-04-07T14:33:55;4.73;;;4.23;;
781;SDS011;374;52.568;13.402;2023-04-07T14:36:20;5.20;;;4.20;;
781;SDS011;374;52.568;13.402;2023-04-07T14:38:46;6.33;;;4.50;;
781;SDS011;374;52.568;13.402;2023-04-07T14:41:11;4.43;;;4.03;;
781;SDS011;374;52.568;13.402;2023-04-07T14:43:37;4.60;;;3.73;;
781;SDS011;374;52.568;13.402;2023-04-07T14:46:03;4.60;;;4.20;;
781;SDS011;374;52.568;13.402;2023-04-07T14:48:29;4.53;;;4.13;;
781;SDS011;374;52.568;13.402;2023-04-07T14:50:56;5.07;;;4.40;;
781;SDS011;374;52.568;13.402;2023-04-07T14:53:21;5.17;;;3.57;;
781;SDS011;374;52.568;13.402;2023-04-07T14:55:47;5.27;;;3.70;;
781;SDS011;374;52.568;13.402;2023-04-07T14:58:13;5.80;;;4.50;;
781;SDS011;374;52.568;13.402;2023-04-07T15:00:38;5.40;;;4.27;;
781;SDS011;374;52.568;13.402;2023-04-07T15:03:04;4.27;;;3.87;;
781;SDS011;374;52.568;13.402;2023-04-07T15:05:29;3.57;;;3.27;;
781;SDS011;374;52.568;13.402;2023-04-07T15:08:01;4.63;;;4.23;;
781;SDS011;374;52.568;13.402;2023-04-07T15:10:29;4.33;;;3.93;;
781;SDS011;374;52.568;13.402;2023-04-07T15:12:57;3.80;;;3.50;;
781;SDS011;374;52.568;13.402;2023-04-07T15:15:22;5.70;;;4.70;;
781;SDS011;374;52.568;13.402;2023-04-07T15:17:48;8.83;;;4.57;;
781;SDS011;374;52.568;13.402;2023-04-07T15:20:14;4.53;;;4.13;;
781;SDS011;374;52.568;13.402;2023-04-07T15:22:39;4.33;;;3.87;;
781;SDS011;374;52.568;13.402;2023-04-07T15:25:05;6.90;;;6.07;;
781;SDS011;374;52.568;13.402;2023-04-07T15:27:30;4.63;;;3.90;;
781;SDS011;374;52.568;13.402;2023-04-07T15:29:56;5.50;;;5.00;;
781;SDS011;374;52.568;13.402;2023-04-07T15:32:21;6.97;;;6.23;;
781;SDS011;374;52.568;13.402;2023-04-07T15:34:48;6.70;;;5.40;;
781;SDS011;374;52.568;13.402;2023-04-07T15:37:13;6.40;;;4.73;;